Time;durP1;ratioP1;P1;durP2;ratioP2;P2;SDS_P1;SDS_P2;PMS_P1;PMS_P2;Temp;Humidity;BMP_temperature;BMP_pressure;BME280_temperature;BME280_humidity;BME280_pressure;Samples;Min_cycle;Max_cycle;Signal;HPM_P1;HPM_P2
2023/03/31 00:02:13;;;;;;;16.27;3.75;;;11.70;78.40;;;;;;5049581;28;20510;-76
2023/03/31 00:04:44;;;;;;;16.05;3.67;;;11.70;78.40;;;;;;5016207;28;20048;-76
2023/03/31 00:07:12;;;;;;;20.15;3.78;;;11.70;78.30;;;;;;5049517;28;20073;-76
2023/03/31 00:09:39;;;;;;;16.83;4.40;;;11.60;78.20;;;;;;5023838;28;20040;-76
2023/03/31 00:12:05;;;;;;;14.50;3.72;;;11.60;78.10;;;;;;5035941;28;20049;-76
2023/03/31 00:14:31;;;;;;;14.70;4.22;;;11.60;78.10;;;;;;5035923;28;20048;-76
2023/03/31 00:16:57;;;;;;;16.13;3.38;;;11.70;78.00;;;;;;5019597;28;20044;-76
2023/03/31 00:19:23;;;;;;;18.27;3.95;;;11.60;77.90;;;;;;4991434;28;20076;-76
2023/03/31 00:21:50;;;;;;;14.68;3.45;;;11.60;77.90;;;;;;5016147;28;20120;-76
2023/03/31 00:24:16;;;;;;;16.92;4.18;;;11.60;77.90;;;;;;4999736;28;20081;-76
2023/03/31 00:26:42;;;;;;;16.08;4.03;;;11.50;77.80;;;;;;5013062;28;20038;-76
2023/03/31 00:29:10;;;;;;;15.93;3.95;;;11.50;77.70;;;;;;5059218;28;20548;-76
2023/03/31 00:31:37;;;;;;;13.45;4.45;;;11.60;77.80;;;;;;5042903;28;20042;-76
2023/03/31 00:34:04;;;;;;;19.15;4.25;;;11.50;77.70;;;;;;5049976;28;20045;-76
2023/03/31 00:36:30;;;;;;;16.10;3.83;;;11.50;77.70;;;;;;5016039;28;20191;-76
2023/03/31 00:38:59;;;;;;;16.38;3.47;;;11.50;77.60;;;;;;4983262;28;20555;-76
2023/03/31 00:41:26;;;;;;;16.95;3.45;;;11.40;77.60;;;;;;5016847;28;20037;-76
2023/03/31 00:44:28;;;;;;;20.23;5.07;;;11.40;77.60;;;;;;5035807;28;20056;-76
2023/03/31 00:46:53;;;;;;;13.68;4.10;;;11.40;77.50;;;;;;5014845;28;20048;-76
2023/03/31 00:49:37;;;;;;;16.77;4.18;;;11.30;77.50;;;;;;5015487;28;20045;-76
2023/03/31 00:52:13;;;;;;;17.65;3.33;;;11.30;77.50;;;;;;5015869;28;20369;-76
2023/03/31 00:54:43;;;;;;;18.60;3.47;;;11.30;77.60;;;;;;4999220;28;20049;-76
2023/03/31 00:57:09;;;;;;;17.02;3.78;;;11.30;77.70;;;;;;5055522;28;20038;-76
2023/03/31 00:59:39;;;;;;;14.57;3.50;;;11.30;77.70;;;;;;5054138;28;20042;-76
2023/03/31 01:02:06;;;;;;;16.25;3.65;;;11.20;77.70;;;;;;5048437;28;20041;-76
2023/03/31 01:04:40;;;;;;;11.50;3.50;;;11.20;77.70;;;;;;5015445;28;20045;-76
2023/03/31 01:07:24;;;;;;;13.20;3.50;;;11.20;77.80;;;;;;5048486;28;20511;-76
2023/03/31 01:09:52;;;;;;;13.18;2.83;;;11.10;77.70;;;;;;5015380;28;20045;-76
2023/03/31 01:12:20;;;;;;;16.23;4.15;;;11.00;77.70;;;;;;5048422;28;20045;-76
2023/03/31 01:14:47;;;;;;;16.45;3.42;;;11.00;77.80;;;;;;5031534;28;20083;-76
2023/03/31 01:17:17;;;;;;;18.50;3.92;;;11.00;77.90;;;;;;5031728;28;20041;-76
2023/03/31 01:19:54;;;;;;;17.50;3.90;;;11.00;78.00;;;;;;5003247;28;20033;-76
2023/03/31 01:22:53;;;;;;;21.48;4.05;;;11.00;78.20;;;;;;5021828;28;20034;-76
2023/03/31 01:25:41;;;;;;;20.20;4.00;;;10.90;78.20;;;;;;5033748;28;20052;-76
2023/03/31 01:28:13;;;;;;;15.90;4.22;;;10.90;78.50;;;;;;5015375;28;20075;-76
2023/03/31 01:30:44;;;;;;;14.27;3.13;;;10.80;78.60;;;;;;5015311;28;20133;-76
2023/03/31 01:33:32;;;;;;;15.50;3.28;;;10.90;78.70;;;;;;5015112;28;20045;-76
2023/03/31 01:36:23;;;;;;;17.55;3.83;;;10.80;78.80;;;;;;5010148;28;20048;-76
2023/03/31 01:38:57;;;;;;;13.90;3.58;;;10.80;79.00;;;;;;5031381;28;20037;-76
2023/03/31 01:41:23;;;;;;;15.73;3.47;;;10.80;79.00;;;;;;5029102;28;20562;-76
2023/03/31 01:43:52;;;;;;;14.63;3.70;;;10.80;79.10;;;;;;5040702;28;20041;-76
2023/03/31 01:46:27;;;;;;;16.70;4.03;;;10.80;79.20;;;;;;5052189;28;20048;-77
2023/03/31 01:49:04;;;;;;;18.50;3.70;;;10.80;79.20;;;;;;5046747;28;20116;-77
2023/03/31 01:51:44;;;;;;;17.38;4.07;;;10.70;79.30;;;;;;5022819;28;20041;-77
2023/03/31 01:54:27;;;;;;;10.82;3.33;;;10.70;79.40;;;;;;5038071;28;20045;-76
2023/03/31 01:57:25;;;;;;;14.23;3.30;;;10.70;79.40;;;;;;5038604;28;20049;-76
2023/03/31 02:00:00;;;;;;;14.98;3.80;;;10.70;79.60;;;;;;4995985;28;20062;-76
2023/03/31 02:02:36;;;;;;;15.60;2.92;;;10.70;79.60;;;;;;4982915;28;20145;-76
2023/03/31 02:05:19;;;;;;;15.05;3.00;;;10.60;79.70;;;;;;4998961;28;20045;-76
2023/03/31 02:07:53;;;;;;;15.50;4.00;;;10.60;79.80;;;;;;4998927;28;20045;-76
2023/03/31 02:10:20;;;;;;;;;;;10.60;79.90;;;;;;5010139;28;20499;-76
2023/03/31 02:12:47;;;;;;;13.43;3.25;;;10.60;79.60;;;;;;5002134;28;20363;-76
2023/03/31 02:15:24;;;;;;;20.98;3.47;;;10.60;80.00;;;;;;5002046;28;20051;-76
2023/03/31 02:17:54;;;;;;;14.20;3.33;;;10.60;80.20;;;;;;5018031;28;20030;-76
2023/03/31 02:20:21;;;;;;;18.50;3.83;;;10.60;80.30;;;;;;5018109;28;20551;-76
2023/03/31 02:22:52;;;;;;;15.98;4.18;;;10.60;80.40;;;;;;5034643;28;20041;-76
2023/03/31 02:25:24;;;;;;;14.35;3.85;;;10.60;80.50;;;;;;5018056;28;20112;-76
2023/03/31 02:27:58;;;;;;;11.07;2.60;;;10.60;80.70;;;;;;5038439;28;20033;-76
2023/03/31 02:30:40;;;;;;;15.33;3.43;;;10.60;80.70;;;;;;5038010;28;20091;-76
2023/03/31 02:33:06;;;;;;;17.13;4.28;;;10.60;80.80;;;;;;5037904;28;20570;-76
2023/03/31 02:35:33;;;;;;;17.45;3.40;;;10.60;80.90;;;;;;5037671;28;20045;-76
2023/03/31 02:37:59;;;;;;;15.45;3.20;;;10.60;81.00;;;;;;5021200;28;20041;-76
2023/03/31 02:40:26;;;;;;;18.20;3.60;;;10.60;81.00;;;;;;5021613;28;20124;-76
2023/03/31 02:42:52;;;;;;;9.52;2.97;;;10.60;81.10;;;;;;5017959;28;20037;-76
2023/03/31 02:45:44;;;;;;;15.18;3.78;;;10.60;81.20;;;;;;5052534;28;20045;-76
2023/03/31 02:48:16;;;;;;;13.63;3.63;;;10.60;81.40;;;;;;5034201;28;20053;-76
2023/03/31 02:50:58;;;;;;;9.10;3.50;;;10.60;81.50;;;;;;5050841;28;20057;-76
2023/03/31 02:54:02;;;;;;;12.95;2.90;;;10.70;81.60;;;;;;5067088;28;20053;-76
2023/03/31 02:56:40;;;;;;;10.13;3.65;;;10.70;81.70;;;;;;5009834;28;20064;-76
2023/03/31 02:59:15;;;;;;;15.45;3.75;;;10.70;81.90;;;;;;5067031;28;20061;-76
2023/03/31 03:01:53;;;;;;;12.05;3.22;;;10.70;81.90;;;;;;5053347;28;20056;-76
2023/03/31 03:04:48;;;;;;;15.75;3.50;;;10.70;82.10;;;;;;5029361;28;20049;-76
2023/03/31 03:07:47;;;;;;;9.05;2.90;;;10.70;82.10;;;;;;5020682;28;20475;-76
2023/03/31 03:10:53;;;;;;;10.30;3.45;;;10.70;82.20;;;;;;5016966;28;20049;-76
2023/03/31 03:13:29;;;;;;;14.23;3.55;;;10.70;82.30;;;;;;4991710;28;20496;-76
2023/03/31 03:16:02;;;;;;;11.10;3.58;;;10.70;82.40;;;;;;4981795;28;20377;-76
2023/03/31 03:18:28;;;;;;;13.38;3.92;;;10.70;82.50;;;;;;5023414;28;20048;-76
2023/03/31 03:20:53;;;;;;;11.20;3.58;;;10.70;83.10;;;;;;5033706;28;20046;-76
2023/03/31 03:23:19;;;;;;;15.35;4.20;;;10.80;83.00;;;;;;5017231;28;20388;-76
2023/03/31 03:25:45;;;;;;;11.75;3.42;;;10.80;83.10;;;;;;5017054;28;20048;-77
2023/03/31 03:28:11;;;;;;;9.88;3.47;;;10.80;83.30;;;;;;5019184;28;20053;-76
2023/03/31 03:30:37;;;;;;;10.43;3.70;;;10.80;83.60;;;;;;5016702;28;20037;-77
2023/03/31 03:33:05;;;;;;;10.35;3.80;;;10.80;83.70;;;;;;5017016;28;20052;-77
2023/03/31 03:35:31;;;;;;;10.48;3.90;;;10.80;83.80;;;;;;5016579;28;20120;-77
2023/03/31 03:37:57;;;;;;;13.60;4.53;;;10.80;84.00;;;;;;5000211;28;20033;-77
2023/03/31 03:40:23;;;;;;;10.18;4.55;;;10.80;84.10;;;;;;5016590;28;20439;-77
2023/03/31 03:42:49;;;;;;;10.82;4.30;;;10.80;84.30;;;;;;5019694;28;20044;-77
2023/03/31 03:45:14;;;;;;;13.60;4.45;;;10.80;84.40;;;;;;5016400;28;20404;-77
2023/03/31 03:47:40;;;;;;;15.35;5.00;;;10.80;84.50;;;;;;5016456;28;20041;-77
2023/03/31 03:50:06;;;;;;;14.63;5.10;;;10.80;84.70;;;;;;5016494;28;20045;-77
2023/03/31 03:52:32;;;;;;;11.50;4.13;;;10.80;84.80;;;;;;5016670;28;20049;-76
2023/03/31 03:54:58;;;;;;;15.75;4.72;;;10.80;84.90;;;;;;5049257;28;20370;-76
2023/03/31 03:57:23;;;;;;;14.85;4.57;;;10.80;85.00;;;;;;5041123;28;20037;-76
2023/03/31 03:59:49;;;;;;;13.10;4.63;;;10.80;85.10;;;;;;5016060;28;20046;-76
2023/03/31 04:02:15;;;;;;;12.00;4.88;;;10.80;85.20;;;;;;5016350;28;20049;-76
2023/03/31 04:04:40;;;;;;;15.52;5.47;;;10.80;85.20;;;;;;5032491;28;20089;-76
2023/03/31 04:07:06;;;;;;;11.07;4.70;;;10.80;85.30;;;;;;5032403;28;20044;-76
2023/03/31 04:09:32;;;;;;;12.77;4.70;;;10.80;85.30;;;;;;5032560;28;20128;-76
2023/03/31 04:11:57;;;;;;;12.70;5.18;;;10.80;85.40;;;;;;5023240;28;20404;-76
2023/03/31 04:14:24;;;;;;;8.65;4.32;;;10.80;85.40;;;;;;5048952;28;20405;-76
2023/03/31 04:16:50;;;;;;;14.80;4.70;;;10.80;85.50;;;;;;5066171;28;20084;-76
2023/03/31 04:19:16;;;;;;;14.20;5.72;;;10.80;85.60;;;;;;5049613;28;20041;-76
2023/03/31 04:21:49;;;;;;;11.77;4.80;;;10.80;85.60;;;;;;5016077;28;20048;-76
2023/03/31 04:24:20;;;;;;;13.68;5.03;;;10.80;85.70;;;;;;5065765;28;20099;-76
2023/03/31 04:26:49;;;;;;;12.35;5.00;;;10.80;85.80;;;;;;5020081;28;20041;-76
2023/03/31 04:29:15;;;;;;;10.88;4.80;;;10.80;85.80;;;;;;5035688;28;20103;-77
2023/03/31 04:31:42;;;;;;;13.80;5.70;;;10.80;85.90;;;;;;5035760;28;20514;-76
2023/03/31 04:34:12;;;;;;;13.05;5.05;;;10.80;86.00;;;;;;5032308;28;20052;-76
2023/03/31 04:36:45;;;;;;;12.68;4.47;;;10.80;86.10;;;;;;5048886;28;20037;-76
2023/03/31 04:39:12;;;;;;;12.68;4.28;;;10.80;86.20;;;;;;5064882;28;20042;-76
2023/03/31 04:41:38;;;;;;;13.15;4.25;;;10.80;86.20;;;;;;5065448;28;20071;-76
2023/03/31 04:44:05;;;;;;;8.90;3.92;;;10.80;86.30;;;;;;5015515;28;20054;-76
2023/03/31 04:46:31;;;;;;;11.32;4.60;;;10.80;86.20;;;;;;5065557;28;20090;-76
2023/03/31 04:48:58;;;;;;;10.43;4.65;;;10.80;86.20;;;;;;5053754;28;20195;-76
2023/03/31 04:51:24;;;;;;;11.35;4.53;;;10.80;86.20;;;;;;5032090;28;20500;-76
2023/03/31 04:53:49;;;;;;;9.65;4.45;;;10.80;86.30;;;;;;5015635;28;20138;-78
2023/03/31 04:56:15;;;;;;;11.35;4.75;;;10.80;86.40;;;;;;5015536;28;20063;-77
2023/03/31 04:58:41;;;;;;;13.38;4.32;;;10.80;86.40;;;;;;5031628;28;20103;-77
2023/03/31 05:01:06;;;;;;;13.27;4.85;;;10.80;86.50;;;;;;5031808;28;20048;-77
2023/03/31 05:03:33;;;;;;;10.18;3.90;;;10.80;86.60;;;;;;5015748;28;20048;-77
2023/03/31 05:05:59;;;;;;;7.68;3.83;;;10.70;86.50;;;;;;5015522;28;20091;-77
2023/03/31 05:08:26;;;;;;;11.85;4.18;;;10.80;86.70;;;;;;5015449;28;20075;-79
2023/03/31 05:10:52;;;;;;;12.25;4.35;;;10.70;86.70;;;;;;5015683;28;20045;-77
2023/03/31 05:13:18;;;;;;;9.60;4.55;;;10.70;86.70;;;;;;5015256;28;20037;-77
2023/03/31 05:15:44;;;;;;;11.88;3.60;;;10.70;86.80;;;;;;4999003;28;20064;-77
2023/03/31 05:18:10;;;;;;;9.48;3.60;;;10.70;86.80;;;;;;5026820;28;20045;-77
2023/03/31 05:20:36;;;;;;;12.45;4.43;;;10.70;86.80;;;;;;5019629;28;20148;-77
2023/03/31 05:23:02;;;;;;;11.70;5.13;;;10.70;86.80;;;;;;5035903;28;20033;-77
2023/03/31 05:25:31;;;;;;;8.30;3.80;;;10.70;86.80;;;;;;5019757;28;20515;-77
2023/03/31 05:27:58;;;;;;;10.25;3.67;;;10.70;86.80;;;;;;5018686;28;20041;-76
2023/03/31 05:30:25;;;;;;;14.45;4.10;;;10.70;86.90;;;;;;5034426;28;20041;-77
2023/03/31 05:32:51;;;;;;;14.27;4.43;;;10.70;87.00;;;;;;5022229;28;20083;-76
2023/03/31 05:35:17;;;;;;;10.43;3.90;;;10.70;87.00;;;;;;5038429;28;20503;-76
2023/03/31 05:37:43;;;;;;;11.43;4.90;;;10.70;87.00;;;;;;5022119;28;20037;-77
2023/03/31 05:40:09;;;;;;;13.13;4.40;;;10.70;87.10;;;;;;5055313;28;20043;-77
2023/03/31 05:42:36;;;;;;;9.35;4.25;;;10.70;87.10;;;;;;5027837;28;20496;-77
2023/03/31 05:45:02;;;;;;;16.83;4.53;;;10.70;87.20;;;;;;5007579;28;20048;-76
2023/03/31 05:47:27;;;;;;;9.50;3.65;;;10.60;87.20;;;;;;5014956;28;20041;-76
2023/03/31 05:49:53;;;;;;;8.07;3.95;;;10.60;87.20;;;;;;5018986;28;20136;-77
2023/03/31 05:52:19;;;;;;;12.30;3.88;;;10.60;87.30;;;;;;5018436;28;20532;-77
2023/03/31 05:54:44;;;;;;;9.07;3.53;;;10.60;87.30;;;;;;5034665;28;20041;-77
2023/03/31 05:57:10;;;;;;;9.98;3.67;;;10.60;87.40;;;;;;5038966;28;20033;-76
2023/03/31 05:59:37;;;;;;;9.57;3.22;;;10.60;87.40;;;;;;5018406;28;20060;-76
2023/03/31 06:02:03;;;;;;;7.93;3.03;;;10.60;87.80;;;;;;5018453;28;20041;-77
2023/03/31 06:04:31;;;;;;;16.17;3.30;;;10.60;87.40;;;;;;5019622;28;20041;-77
2023/03/31 06:06:57;;;;;;;9.88;3.50;;;10.60;87.50;;;;;;5068727;28;20045;-77
2023/03/31 06:09:24;;;;;;;6.63;3.10;;;10.60;87.40;;;;;;5056763;28;20128;-77
2023/03/31 06:11:50;;;;;;;7.07;2.60;;;10.60;87.40;;;;;;5018547;28;20056;-77
2023/03/31 06:14:16;;;;;;;8.95;3.20;;;10.60;87.40;;;;;;5032851;28;20394;-76
2023/03/31 06:16:42;;;;;;;6.93;2.95;;;10.60;87.40;;;;;;5055455;28;20073;-76
2023/03/31 06:19:08;;;;;;;8.23;3.35;;;10.60;87.40;;;;;;5021705;28;20092;-76
2023/03/31 06:21:33;;;;;;;8.43;3.03;;;10.60;87.90;;;;;;5021834;28;20554;-76
2023/03/31 06:24:00;;;;;;;8.75;3.78;;;10.60;87.40;;;;;;4992099;28;20515;-76
2023/03/31 06:26:26;;;;;;;8.38;4.00;;;10.60;87.50;;;;;;5017796;28;20056;-77
2023/03/31 06:28:52;;;;;;;7.28;3.42;;;10.60;87.50;;;;;;5033547;28;20486;-77
2023/03/31 06:31:27;;;;;;;8.68;3.42;;;10.60;87.60;;;;;;5034078;28;20116;-81
2023/03/31 06:33:53;;;;;;;8.70;3.80;;;10.60;87.70;;;;;;5033682;28;20048;-77
2023/03/31 06:36:21;;;;;;;10.55;4.40;;;10.60;87.70;;;;;;5017672;28;20033;-77
2023/03/31 06:38:47;;;;;;;12.35;4.53;;;10.50;87.60;;;;;;5001696;28;20484;-77
2023/03/31 06:41:15;;;;;;;10.05;3.95;;;10.50;87.70;;;;;;5034294;28;20571;-78
2023/03/31 06:43:41;;;;;;;9.27;3.88;;;10.50;87.80;;;;;;5018059;28;20392;-78
2023/03/31 06:46:07;;;;;;;12.10;4.28;;;10.60;88.00;;;;;;5018128;28;20033;-78
2023/03/31 06:48:32;;;;;;;8.07;3.65;;;10.50;88.00;;;;;;5001122;28;20045;-78
2023/03/31 06:51:00;;;;;;;8.15;3.75;;;10.50;88.00;;;;;;5017218;28;20067;-78
2023/03/31 06:53:26;;;;;;;7.30;4.18;;;10.50;88.10;;;;;;5034117;28;20397;-78
2023/03/31 06:55:52;;;;;;;10.00;4.72;;;10.50;88.20;;;;;;5000828;28;20485;-78
2023/03/31 06:58:18;;;;;;;8.45;4.35;;;10.50;88.20;;;;;;5050478;28;20041;-78
2023/03/31 07:00:45;;;;;;;9.63;4.20;;;10.50;88.40;;;;;;5021289;28;20116;-78
2023/03/31 07:03:11;;;;;;;8.80;4.15;;;10.50;88.40;;;;;;5050551;28;20038;-78
2023/03/31 07:05:36;;;;;;;7.57;3.80;;;10.50;88.50;;;;;;5033939;28;20075;-78
2023/03/31 07:08:03;;;;;;;11.35;4.68;;;10.50;88.60;;;;;;5050014;28;20124;-78
2023/03/31 07:10:30;;;;;;;8.07;3.42;;;10.50;88.70;;;;;;5001335;28;20049;-78
2023/03/31 07:12:56;;;;;;;7.93;3.65;;;10.50;88.80;;;;;;5017074;28;20052;-78
2023/03/31 07:15:23;;;;;;;10.20;3.75;;;10.50;88.90;;;;;;5016878;28;20130;-78
2023/03/31 07:17:52;;;;;;;8.65;3.58;;;10.50;89.00;;;;;;5016775;28;20049;-78
2023/03/31 07:20:19;;;;;;;7.13;3.28;;;10.50;89.50;;;;;;5016787;28;20044;-78
2023/03/31 07:22:46;;;;;;;7.65;4.00;;;10.50;89.10;;;;;;5016977;28;20034;-78
2023/03/31 07:25:15;;;;;;;11.80;3.75;;;10.60;89.20;;;;;;5000432;28;20038;-78
2023/03/31 07:27:41;;;;;;;10.52;4.28;;;10.60;89.40;;;;;;5016592;28;20649;-76
2023/03/31 07:30:10;;;;;;;10.93;3.80;;;10.60;89.30;;;;;;5016450;28;20083;-78
2023/03/31 07:32:39;;;;;;;10.80;3.58;;;10.60;89.40;;;;;;5016460;28;20552;-78
2023/03/31 07:35:08;;;;;;;8.73;3.78;;;10.60;89.40;;;;;;5016450;28;20056;-78
2023/03/31 07:37:40;;;;;;;10.80;3.92;;;10.60;89.40;;;;;;5033485;28;20111;-78
2023/03/31 07:40:06;;;;;;;15.27;3.85;;;10.60;89.50;;;;;;5016267;28;20045;-78
2023/03/31 07:42:33;;;;;;;10.20;3.78;;;10.70;89.60;;;;;;5049896;28;20052;-78
2023/03/31 07:44:59;;;;;;;12.82;3.45;;;10.70;89.60;;;;;;5053590;28;20049;-76
2023/03/31 07:47:25;;;;;;;10.13;3.65;;;10.70;89.60;;;;;;5032262;28;20111;-78
2023/03/31 07:49:50;;;;;;;9.40;3.13;;;10.70;89.60;;;;;;5056722;28;20049;-78
2023/03/31 07:52:18;;;;;;;7.88;3.22;;;10.70;89.60;;;;;;5049595;28;20454;-77
2023/03/31 07:54:45;;;;;;;15.75;4.13;;;10.80;89.70;;;;;;5065204;28;20051;-77
2023/03/31 07:57:11;;;;;;;12.50;3.50;;;10.80;89.70;;;;;;5016274;28;20034;-76
2023/03/31 07:59:37;;;;;;;9.35;3.08;;;10.80;89.70;;;;;;5000032;28;20484;-77
2023/03/31 08:02:02;;;;;;;12.10;3.47;;;10.80;89.70;;;;;;5016501;28;20098;-77
2023/03/31 08:04:28;;;;;;;11.77;3.40;;;10.90;89.70;;;;;;5032608;28;20041;-77
2023/03/31 08:06:54;;;;;;;10.52;3.95;;;10.90;89.60;;;;;;5049537;28;20045;-77
2023/03/31 08:09:21;;;;;;;11.05;3.20;;;10.90;89.60;;;;;;5016039;28;20449;-77
2023/03/31 08:11:47;;;;;;;9.63;2.67;;;10.90;89.60;;;;;;4999701;28;20038;-77
2023/03/31 08:14:13;;;;;;;9.38;3.95;;;10.90;89.60;;;;;;5015722;28;20102;-77
2023/03/31 08:16:39;;;;;;;13.80;3.42;;;11.00;89.50;;;;;;5016104;28;20040;-77
2023/03/31 08:19:05;;;;;;;9.32;2.80;;;11.00;89.40;;;;;;4983012;28;20037;-77
2023/03/31 08:21:31;;;;;;;9.20;2.97;;;11.00;89.50;;;;;;4999886;28;20034;-77
2023/03/31 08:23:57;;;;;;;8.25;2.78;;;11.00;89.80;;;;;;5032585;28;20095;-77
2023/03/31 08:26:24;;;;;;;7.25;3.05;;;11.00;89.40;;;;;;5016419;28;20049;-77
2023/03/31 08:28:50;;;;;;;9.45;2.67;;;11.00;89.40;;;;;;5016173;28;20045;-77
2023/03/31 08:31:18;;;;;;;11.68;3.20;;;11.10;89.40;;;;;;5016400;28;20418;-77
2023/03/31 08:33:45;;;;;;;8.57;3.30;;;11.10;89.40;;;;;;5016409;28;20463;-77
2023/03/31 08:36:12;;;;;;;10.57;3.45;;;11.10;89.40;;;;;;5015944;28;20393;-76
2023/03/31 08:38:40;;;;;;;7.38;2.65;;;11.20;89.40;;;;;;5016105;28;20369;-77
2023/03/31 08:41:17;;;;;;;11.00;3.42;;;11.20;89.40;;;;;;5016103;28;20041;-77
2023/03/31 08:43:45;;;;;;;9.50;3.53;;;11.20;89.30;;;;;;5032266;28;20034;-77
2023/03/31 08:46:14;;;;;;;11.02;3.00;;;11.20;89.20;;;;;;5032481;28;20124;-77
2023/03/31 08:48:53;;;;;;;6.57;2.22;;;11.30;89.20;;;;;;5015357;28;20091;-76
2023/03/31 08:51:39;;;;;;;7.03;2.47;;;11.30;89.20;;;;;;5015310;28;20116;-76
2023/03/31 08:54:12;;;;;;;7.03;2.67;;;11.30;89.10;;;;;;4998485;28;20054;-76
2023/03/31 08:56:42;;;;;;;8.90;3.13;;;11.40;89.10;;;;;;4999457;28;20087;-76
2023/03/31 08:59:20;;;;;;;5.88;2.20;;;11.40;89.10;;;;;;5031605;28;20100;-76
2023/03/31 09:01:49;;;;;;;7.00;2.03;;;11.40;89.10;;;;;;5014724;28;20060;-76
2023/03/31 09:04:15;;;;;;;7.15;2.63;;;11.50;89.10;;;;;;5015902;28;20053;-76
2023/03/31 09:07:04;;;;;;;8.10;2.28;;;11.50;89.10;;;;;;5015400;28;20049;-80
2023/03/31 09:09:46;;;;;;;6.00;2.50;;;11.50;89.10;;;;;;5032040;28;20095;-80
2023/03/31 09:12:33;;;;;;;7.10;2.42;;;11.60;89.10;;;;;;5018463;28;20392;-80
2023/03/31 09:15:00;;;;;;;4.00;1.70;;;11.60;89.00;;;;;;4999554;28;20386;-80
2023/03/31 09:17:28;;;;;;;5.47;2.25;;;11.70;89.10;;;;;;4999197;28;20103;-80
2023/03/31 09:20:07;;;;;;;5.43;1.95;;;11.70;89.00;;;;;;4999137;28;20037;-80
2023/03/31 09:22:43;;;;;;;6.82;1.70;;;11.70;89.00;;;;;;5032021;28;20077;-80
2023/03/31 09:25:26;;;;;;;5.30;1.75;;;11.80;89.00;;;;;;4999276;28;20049;-80
2023/03/31 09:27:57;;;;;;;6.07;1.80;;;11.80;89.00;;;;;;5015017;28;20045;-80
2023/03/31 09:30:30;;;;;;;4.60;1.95;;;11.90;88.90;;;;;;4999050;28;20128;-80
2023/03/31 09:33:27;;;;;;;6.32;1.40;;;11.90;88.80;;;;;;5012258;28;20570;-81
2023/03/31 09:35:53;;;;;;;8.10;1.88;;;12.00;88.70;;;;;;4995060;28;20061;-80
2023/03/31 09:38:18;;;;;;;3.78;1.42;;;12.00;88.70;;;;;;5029092;28;20046;-80
2023/03/31 09:40:44;;;;;;;6.03;1.83;;;12.00;88.60;;;;;;4996148;28;20048;-80
2023/03/31 09:43:29;;;;;;;5.35;1.77;;;12.10;88.50;;;;;;4995675;28;20045;-80
2023/03/31 09:45:55;;;;;;;3.08;1.40;;;12.10;88.50;;;;;;4997018;28;20041;-80
2023/03/31 09:48:25;;;;;;;5.95;2.00;;;12.10;88.60;;;;;;4996483;28;20040;-80
2023/03/31 09:50:59;;;;;;;6.15;1.92;;;12.20;88.60;;;;;;5024494;28;20091;-80
2023/03/31 09:53:39;;;;;;;4.90;2.10;;;12.30;88.70;;;;;;4992416;28;20050;-80
2023/03/31 09:56:08;;;;;;;6.00;1.85;;;12.30;88.70;;;;;;5009037;28;20038;-80
2023/03/31 09:58:42;;;;;;;4.07;1.75;;;12.40;88.70;;;;;;5009937;28;20501;-80
2023/03/31 10:01:11;;;;;;;7.43;2.17;;;12.40;88.80;;;;;;4992072;28;20468;-80
2023/03/31 10:03:50;;;;;;;5.70;1.85;;;12.50;88.80;;;;;;5008305;28;20033;-81
2023/03/31 10:06:17;;;;;;;3.70;1.70;;;12.50;88.70;;;;;;5044230;28;20532;-81
2023/03/31 10:08:56;;;;;;;5.20;1.90;;;12.60;88.80;;;;;;5013065;28;20036;-80
2023/03/31 10:11:23;;;;;;;6.10;1.95;;;12.60;88.70;;;;;;4994406;28;20037;-80
2023/03/31 10:14:03;;;;;;;5.45;1.85;;;12.70;88.40;;;;;;5011616;28;20380;-80
2023/03/31 10:16:32;;;;;;;4.70;1.60;;;12.80;88.10;;;;;;4996026;28;20030;-80
2023/03/31 10:19:11;;;;;;;6.97;2.28;;;12.80;87.90;;;;;;5027597;28;20045;-80
2023/03/31 10:21:37;;;;;;;9.43;2.58;;;12.90;87.70;;;;;;5044964;28;20049;-80
2023/03/31 10:24:09;;;;;;;8.82;2.83;;;12.90;87.60;;;;;;4995453;28;20038;-80
2023/03/31 10:26:35;;;;;;;7.38;2.08;;;12.90;87.80;;;;;;5010945;28;20061;-79
2023/03/31 10:29:01;;;;;;;8.55;2.10;;;13.00;88.10;;;;;;5044044;28;20477;-79
2023/03/31 10:31:35;;;;;;;7.55;2.50;;;13.10;88.30;;;;;;5041787;28;20037;-80
2023/03/31 10:34:07;;;;;;;4.32;2.13;;;13.20;88.70;;;;;;5028160;28;20095;-80
2023/03/31 10:36:33;;;;;;;4.97;2.00;;;13.40;89.20;;;;;;5026108;28;20076;-80
2023/03/31 10:39:06;;;;;;;7.15;3.33;;;13.50;89.00;;;;;;5027118;28;20092;-79
2023/03/31 10:41:32;;;;;;;5.75;2.00;;;13.60;88.70;;;;;;5026204;28;20036;-81
2023/03/31 10:44:02;;;;;;;6.18;1.90;;;13.70;88.20;;;;;;5027497;28;20037;-80
2023/03/31 10:46:48;;;;;;;10.27;2.92;;;13.80;87.50;;;;;;5027311;28;20295;-80
2023/03/31 10:49:16;;;;;;;4.50;1.90;;;13.80;86.40;;;;;;4994847;28;20037;-80
2023/03/31 10:51:51;;;;;;;5.85;1.90;;;13.90;86.20;;;;;;5042979;28;20112;-80
2023/03/31 10:54:17;;;;;;;5.95;1.90;;;14.00;85.90;;;;;;4993759;28;20037;-81
2023/03/31 10:56:46;;;;;;;5.22;1.83;;;14.00;85.50;;;;;;5034472;28;20126;-81
2023/03/31 10:59:30;;;;;;;5.05;1.45;;;14.00;85.20;;;;;;5001168;28;20088;-81
2023/03/31 11:01:59;;;;;;;6.22;2.25;;;14.10;84.50;;;;;;5017295;28;20056;-81
2023/03/31 11:04:43;;;;;;;5.32;1.75;;;14.10;84.40;;;;;;5034032;28;20049;-82
2023/03/31 11:07:39;;;;;;;8.10;2.70;;;14.20;83.80;;;;;;5001378;28;20396;-81
2023/03/31 11:10:07;;;;;;;6.45;1.73;;;14.20;83.40;;;;;;5017811;28;20037;-81
2023/03/31 11:12:43;;;;;;;7.30;2.20;;;14.10;83.20;;;;;;5001190;28;20048;-82
2023/03/31 11:15:33;;;;;;;4.78;1.60;;;14.20;82.70;;;;;;5000641;28;20045;-82
2023/03/31 11:18:27;;;;;;;6.28;2.33;;;14.10;82.30;;;;;;5005967;28;20082;-82
2023/03/31 11:21:00;;;;;;;8.82;2.40;;;14.10;82.40;;;;;;5001047;28;20044;-77
2023/03/31 11:23:42;;;;;;;8.20;2.75;;;14.10;82.70;;;;;;5003425;28;20082;-77
2023/03/31 11:26:47;;;;;;;6.40;1.95;;;14.00;82.70;;;;;;5014769;28;20033;-77
2023/03/31 11:29:29;;;;;;;6.90;2.08;;;14.00;82.50;;;;;;5043974;28;20044;-77
2023/03/31 11:32:41;;;;;;;6.40;2.20;;;14.00;82.70;;;;;;5044206;28;20057;-77
2023/03/31 11:35:58;;;;;;;7.18;2.22;;;14.00;82.90;;;;;;5020986;28;20056;-77
2023/03/31 11:38:52;;;;;;;6.22;2.40;;;14.00;83.00;;;;;;5027071;28;20042;-77
2023/03/31 11:41:35;;;;;;;5.27;2.20;;;13.90;82.80;;;;;;5010356;28;20038;-76
2023/03/31 11:44:04;;;;;;;7.40;2.85;;;13.80;82.90;;;;;;5009522;28;20311;-76
2023/03/31 11:46:53;;;;;;;6.95;2.50;;;13.80;83.30;;;;;;5010349;28;20033;-76
2023/03/31 11:49:23;;;;;;;7.70;2.47;;;13.80;83.20;;;;;;5043050;28;20033;-76
2023/03/31 11:51:56;;;;;;;11.07;3.33;;;13.80;83.60;;;;;;5026513;28;20045;-77
2023/03/31 11:54:29;;;;;;;7.85;2.72;;;13.80;83.80;;;;;;5042606;28;20038;-77
2023/03/31 11:56:55;;;;;;;8.52;2.63;;;13.80;83.70;;;;;;5042797;28;20049;-77
2023/03/31 11:59:26;;;;;;;7.93;2.85;;;13.80;83.60;;;;;;5044014;28;20068;-77
2023/03/31 12:02:14;;;;;;;9.05;3.58;;;13.80;83.80;;;;;;5043295;28;20160;-77
2023/03/31 12:04:44;;;;;;;8.07;2.85;;;13.80;83.70;;;;;;5042631;28;20045;-77
2023/03/31 12:07:27;;;;;;;9.52;3.55;;;13.80;83.90;;;;;;5041936;28;20148;-77
2023/03/31 12:10:04;;;;;;;9.52;3.45;;;13.80;84.10;;;;;;5043123;28;20172;-77
2023/03/31 12:12:33;;;;;;;10.35;3.53;;;13.80;84.40;;;;;;5026040;28;20041;-77
2023/03/31 12:15:12;;;;;;;14.10;3.45;;;13.90;84.80;;;;;;5026058;28;20607;-76
2023/03/31 12:17:42;;;;;;;10.10;3.22;;;13.90;85.20;;;;;;5010252;28;20041;-77
2023/03/31 12:20:43;;;;;;;11.23;3.90;;;14.00;85.30;;;;;;5042796;28;20037;-77
2023/03/31 12:23:16;;;;;;;5.90;2.65;;;14.00;84.90;;;;;;5041764;28;20038;-77
2023/03/31 12:25:51;;;;;;;11.05;3.38;;;14.10;85.10;;;;;;5042264;28;20103;-77
2023/03/31 12:28:18;;;;;;;9.88;3.42;;;14.10;84.60;;;;;;5025945;28;20069;-77
2023/03/31 12:30:46;;;;;;;12.18;3.55;;;14.10;83.80;;;;;;5010264;28;20041;-77
2023/03/31 12:33:35;;;;;;;10.57;2.80;;;14.20;83.00;;;;;;5026605;28;20056;-76
2023/03/31 12:36:18;;;;;;;11.07;3.53;;;14.20;82.40;;;;;;5042074;28;20124;-77
2023/03/31 12:39:03;;;;;;;12.77;4.07;;;14.20;83.00;;;;;;5041812;28;20033;-77
2023/03/31 12:41:59;;;;;;;7.60;2.63;;;14.30;82.70;;;;;;5015793;28;20048;-76
2023/03/31 12:44:47;;;;;;;10.25;3.47;;;14.30;82.20;;;;;;5015674;28;20103;-77
2023/03/31 12:47:28;;;;;;;8.77;2.65;;;14.30;82.00;;;;;;5015723;28;20048;-77
2023/03/31 12:50:00;;;;;;;11.48;3.35;;;14.40;81.70;;;;;;5018768;28;20045;-78
2023/03/31 12:52:50;;;;;;;11.95;3.67;;;14.40;81.50;;;;;;5018678;28;20052;-77
2023/03/31 12:55:25;;;;;;;11.32;3.65;;;14.40;81.00;;;;;;5019337;28;20041;-80
2023/03/31 12:57:51;;;;;;;10.25;2.42;;;14.40;80.90;;;;;;5013623;28;20060;-81
2023/03/31 13:00:28;;;;;;;8.82;2.83;;;14.40;80.50;;;;;;4999680;28;20496;-77
2023/03/31 13:03:36;;;;;;;10.82;2.50;;;14.50;79.70;;;;;;5018027;28;20065;-80
2023/03/31 13:06:03;;;;;;;8.55;2.53;;;14.40;79.20;;;;;;4984448;28;20116;-81